sensor_id;sensor_type;location;lat;lon;timestamp;P1;durP1;ratioP1;P2;durP2;ratioP2
66129;SDS011;52930;51.464;11.764;2023-07-20T00:02:05;6.77;;;3.43;;
66129;SDS011;52930;51.464;11.764;2023-07-20T00:04:32;5.70;;;3.40;;
66129;SDS011;52930;51.464;11.764;2023-07-20T00:06:57;8.43;;;3.47;;
66129;SDS011;52930;51.464;11.764;2023-07-20T00:09:23;9.43;;;3.97;;
66129;SDS011;52930;51.464;11.764;2023-07-20T00:11:49;8.23;;;3.40;;
66129;SDS011;52930;51.464;11.764;2023-07-20T00:14:16;7.63;;;3.67;;
66129;SDS011;52930;51.464;11.764;2023-07-20T00:16:41;8.40;;;3.40;;
66129;SDS011;52930;51.464;11.764;2023-07-20T00:19:06;6.60;;;3.60;;
66129;SDS011;52930;51.464;11.764;2023-07-20T00:21:33;7.10;;;3.53;;
66129;SDS011;52930;51.464;11.764;2023-07-20T00:23:58;6.90;;;3.40;;
66129;SDS011;52930;51.464;11.764;2023-07-20T00:26:24;7.18;;;3.58;;
66129;SDS011;52930;51.464;11.764;2023-07-20T00:28:49;7.60;;;3.40;;
66129;SDS011;52930;51.464;11.764;2023-07-20T00:31:15;6.25;;;3.90;;
66129;SDS011;52930;51.464;11.764;2023-07-20T00:33:40;8.80;;;3.77;;
66129;SDS011;52930;51.464;11.764;2023-07-20T00:36:06;6.57;;;3.57;;
66129;SDS011;52930;51.464;11.764;2023-07-20T00:38:31;5.90;;;3.50;;
66129;SDS011;52930;51.464;11.764;2023-07-20T00:40:57;8.98;;;3.85;;
66129;SDS011;52930;51.464;11.764;2023-07-20T00:43:22;9.57;;;3.83;;
66129;SDS011;52930;51.464;11.764;2023-07-20T00:45:48;8.60;;;4.07;;
66129;SDS011;52930;51.464;11.764;2023-07-20T00:48:13;8.43;;;4.30;;
66129;SDS011;52930;51.464;11.764;2023-07-20T00:50:39;10.23;;;4.45;;
66129;SDS011;52930;51.464;11.764;2023-07-20T00:53:05;7.83;;;4.20;;
66129;SDS011;52930;51.464;11.764;2023-07-20T00:55:31;8.50;;;3.90;;
66129;SDS011;52930;51.464;11.764;2023-07-20T00:57:56;7.97;;;4.30;;
66129;SDS011;52930;51.464;11.764;2023-07-20T01:00:22;7.65;;;4.15;;
66129;SDS011;52930;51.464;11.764;2023-07-20T01:02:48;8.87;;;4.20;;
66129;SDS011;52930;51.464;11.764;2023-07-20T01:05:13;8.30;;;3.87;;
66129;SDS011;52930;51.464;11.764;2023-07-20T01:08:03;10.00;;;3.83;;
66129;SDS011;52930;51.464;11.764;2023-07-20T01:10:31;6.93;;;3.80;;
66129;SDS011;52930;51.464;11.764;2023-07-20T01:13:03;9.20;;;4.72;;
66129;SDS011;52930;51.464;11.764;2023-07-20T01:15:29;8.03;;;4.10;;
66129;SDS011;52930;51.464;11.764;2023-07-20T01:17:55;8.27;;;4.30;;
66129;SDS011;52930;51.464;11.764;2023-07-20T01:20:20;6.37;;;3.77;;
66129;SDS011;52930;51.464;11.764;2023-07-20T01:26:10;6.15;;;3.80;;
66129;SDS011;52930;51.464;11.764;2023-07-20T01:31:58;9.65;;;3.67;;
66129;SDS011;52930;51.464;11.764;2023-07-20T01:34:28;6.60;;;3.58;;
66129;SDS011;52930;51.464;11.764;2023-07-20T01:36:54;7.47;;;3.60;;
66129;SDS011;52930;51.464;11.764;2023-07-20T01:39:20;7.38;;;3.80;;
66129;SDS011;52930;51.464;11.764;2023-07-20T01:41:46;10.65;;;4.10;;
66129;SDS011;52930;51.464;11.764;2023-07-20T01:44:12;7.40;;;3.97;;
66129;SDS011;52930;51.464;11.764;2023-07-20T01:46:38;6.78;;;3.50;;
66129;SDS011;52930;51.464;11.764;2023-07-20T01:49:03;7.50;;;3.73;;
66129;SDS011;52930;51.464;11.764;2023-07-20T01:51:28;8.90;;;3.80;;
66129;SDS011;52930;51.464;11.764;2023-07-20T01:53:54;6.30;;;3.47;;
66129;SDS011;52930;51.464;11.764;2023-07-20T01:56:19;8.77;;;3.93;;
66129;SDS011;52930;51.464;11.764;2023-07-20T01:58:45;7.10;;;4.00;;
66129;SDS011;52930;51.464;11.764;2023-07-20T02:01:10;6.93;;;3.83;;
66129;SDS011;52930;51.464;11.764;2023-07-20T02:03:36;7.82;;;3.53;;
66129;SDS011;52930;51.464;11.764;2023-07-20T02:06:01;11.20;;;3.70;;
66129;SDS011;52930;51.464;11.764;2023-07-20T02:08:26;10.00;;;4.07;;
66129;SDS011;52930;51.464;11.764;2023-07-20T02:10:52;6.87;;;3.83;;
66129;SDS011;52930;51.464;11.764;2023-07-20T02:13:17;7.53;;;3.53;;
66129;SDS011;52930;51.464;11.764;2023-07-20T02:15:42;8.87;;;4.43;;
66129;SDS011;52930;51.464;11.764;2023-07-20T02:18:08;9.18;;;4.13;;
66129;SDS011;52930;51.464;11.764;2023-07-20T02:20:34;8.50;;;3.80;;
66129;SDS011;52930;51.464;11.764;2023-07-20T02:23:00;6.90;;;3.65;;
66129;SDS011;52930;51.464;11.764;2023-07-20T02:25:25;9.93;;;3.70;;
66129;SDS011;52930;51.464;11.764;2023-07-20T02:27:51;10.33;;;4.00;;
66129;SDS011;52930;51.464;11.764;2023-07-20T02:30:17;7.20;;;4.05;;
66129;SDS011;52930;51.464;11.764;2023-07-20T02:32:43;9.05;;;4.30;;
66129;SDS011;52930;51.464;11.764;2023-07-20T02:35:10;10.75;;;4.13;;
66129;SDS011;52930;51.464;11.764;2023-07-20T02:37:36;8.00;;;4.00;;
66129;SDS011;52930;51.464;11.764;2023-07-20T02:40:02;11.50;;;4.13;;
66129;SDS011;52930;51.464;11.764;2023-07-20T02:42:29;12.07;;;4.95;;
66129;SDS011;52930;51.464;11.764;2023-07-20T02:44:54;10.23;;;3.87;;
66129;SDS011;52930;51.464;11.764;2023-07-20T02:47:19;7.90;;;4.20;;
66129;SDS011;52930;51.464;11.764;2023-07-20T02:49:45;12.05;;;4.43;;
66129;SDS011;52930;51.464;11.764;2023-07-20T02:52:11;9.87;;;4.27;;
66129;SDS011;52930;51.464;11.764;2023-07-20T02:54:36;13.73;;;4.80;;
66129;SDS011;52930;51.464;11.764;2023-07-20T02:57:01;12.33;;;4.20;;
66129;SDS011;52930;51.464;11.764;2023-07-20T02:59:27;9.27;;;4.50;;
66129;SDS011;52930;51.464;11.764;2023-07-20T03:01:52;8.30;;;4.00;;
66129;SDS011;52930;51.464;11.764;2023-07-20T03:04:19;9.07;;;4.10;;
66129;SDS011;52930;51.464;11.764;2023-07-20T03:06:44;11.68;;;4.43;;
66129;SDS011;52930;51.464;11.764;2023-07-20T03:09:10;8.10;;;4.97;;
66129;SDS011;52930;51.464;11.764;2023-07-20T03:11:35;13.87;;;4.67;;
66129;SDS011;52930;51.464;11.764;2023-07-20T03:14:00;10.70;;;4.97;;
66129;SDS011;52930;51.464;11.764;2023-07-20T03:16:26;11.57;;;5.13;;
66129;SDS011;52930;51.464;11.764;2023-07-20T03:18:51;9.70;;;5.03;;
66129;SDS011;52930;51.464;11.764;2023-07-20T03:21:17;11.73;;;5.50;;
66129;SDS011;52930;51.464;11.764;2023-07-20T03:23:42;9.63;;;5.57;;
66129;SDS011;52930;51.464;11.764;2023-07-20T03:26:08;11.45;;;5.53;;
66129;SDS011;52930;51.464;11.764;2023-07-20T03:28:37;8.17;;;5.03;;
66129;SDS011;52930;51.464;11.764;2023-07-20T03:31:03;14.50;;;5.32;;
66129;SDS011;52930;51.464;11.764;2023-07-20T03:33:29;9.50;;;5.05;;
66129;SDS011;52930;51.464;11.764;2023-07-20T03:35:56;9.43;;;4.88;;
66129;SDS011;52930;51.464;11.764;2023-07-20T03:38:22;14.35;;;5.00;;
66129;SDS011;52930;51.464;11.764;2023-07-20T03:40:55;15.13;;;5.90;;
66129;SDS011;52930;51.464;11.764;2023-07-20T03:43:22;12.52;;;5.18;;
66129;SDS011;52930;51.464;11.764;2023-07-20T03:45:47;13.07;;;5.40;;
66129;SDS011;52930;51.464;11.764;2023-07-20T03:48:14;13.17;;;5.00;;
66129;SDS011;52930;51.464;11.764;2023-07-20T03:50:40;15.57;;;5.20;;
66129;SDS011;52930;51.464;11.764;2023-07-20T03:53:06;9.85;;;5.55;;
66129;SDS011;52930;51.464;11.764;2023-07-20T03:55:31;11.02;;;5.40;;
66129;SDS011;52930;51.464;11.764;2023-07-20T03:57:56;11.37;;;5.37;;
66129;SDS011;52930;51.464;11.764;2023-07-20T04:00:22;9.73;;;5.23;;
66129;SDS011;52930;51.464;11.764;2023-07-20T04:02:47;12.10;;;5.60;;
66129;SDS011;52930;51.464;11.764;2023-07-20T04:05:13;12.53;;;5.37;;
66129;SDS011;52930;51.464;11.764;2023-07-20T04:07:38;11.57;;;5.37;;
66129;SDS011;52930;51.464;11.764;2023-07-20T04:10:03;13.80;;;5.97;;
66129;SDS011;52930;51.464;11.764;2023-07-20T04:12:29;9.80;;;5.55;;
66129;SDS011;52930;51.464;11.764;2023-07-20T04:14:54;11.17;;;5.97;;
66129;SDS011;52930;51.464;11.764;2023-07-20T04:17:20;12.10;;;5.60;;
66129;SDS011;52930;51.464;11.764;2023-07-20T04:19:45;15.27;;;5.57;;
66129;SDS011;52930;51.464;11.764;2023-07-20T04:22:10;15.37;;;5.63;;
66129;SDS011;52930;51.464;11.764;2023-07-20T04:24:36;11.80;;;5.47;;
66129;SDS011;52930;51.464;11.764;2023-07-20T04:27:01;10.48;;;5.13;;
66129;SDS011;52930;51.464;11.764;2023-07-20T04:29:26;10.80;;;4.97;;
66129;SDS011;52930;51.464;11.764;2023-07-20T04:31:52;10.43;;;4.53;;
66129;SDS011;52930;51.464;11.764;2023-07-20T04:34:17;9.90;;;5.07;;
66129;SDS011;52930;51.464;11.764;2023-07-20T04:36:43;13.30;;;4.67;;
66129;SDS011;52930;51.464;11.764;2023-07-20T04:39:09;9.47;;;4.40;;
66129;SDS011;52930;51.464;11.764;2023-07-20T04:41:35;13.25;;;5.68;;
66129;SDS011;52930;51.464;11.764;2023-07-20T04:44:00;11.80;;;5.33;;
66129;SDS011;52930;51.464;11.764;2023-07-20T04:46:26;12.27;;;5.13;;
66129;SDS011;52930;51.464;11.764;2023-07-20T04:48:51;13.30;;;5.47;;
66129;SDS011;52930;51.464;11.764;2023-07-20T04:51:16;15.63;;;5.27;;
66129;SDS011;52930;51.464;11.764;2023-07-20T04:53:45;10.15;;;4.45;;
66129;SDS011;52930;51.464;11.764;2023-07-20T04:56:11;11.20;;;4.82;;
66129;SDS011;52930;51.464;11.764;2023-07-20T04:58:37;13.38;;;4.80;;
66129;SDS011;52930;51.464;11.764;2023-07-20T05:01:02;12.53;;;4.20;;
66129;SDS011;52930;51.464;11.764;2023-07-20T05:03:28;12.33;;;4.37;;
66129;SDS011;52930;51.464;11.764;2023-07-20T05:05:53;9.03;;;4.70;;
66129;SDS011;52930;51.464;11.764;2023-07-20T05:08:19;6.40;;;3.83;;
66129;SDS011;52930;51.464;11.764;2023-07-20T05:10:44;10.63;;;3.63;;
66129;SDS011;52930;51.464;11.764;2023-07-20T05:13:09;9.80;;;3.77;;
66129;SDS011;52930;51.464;11.764;2023-07-20T05:15:35;8.10;;;3.40;;
66129;SDS011;52930;51.464;11.764;2023-07-20T05:18:00;8.53;;;4.07;;
66129;SDS011;52930;51.464;11.764;2023-07-20T05:20:26;7.63;;;2.80;;
66129;SDS011;52930;51.464;11.764;2023-07-20T05:22:52;12.00;;;3.37;;
66129;SDS011;52930;51.464;11.764;2023-07-20T05:25:18;8.13;;;3.40;;
66129;SDS011;52930;51.464;11.764;2023-07-20T05:27:44;9.23;;;3.50;;
66129;SDS011;52930;51.464;11.764;2023-07-20T05:30:10;9.23;;;3.20;;
66129;SDS011;52930;51.464;11.764;2023-07-20T05:32:36;9.60;;;3.40;;
66129;SDS011;52930;51.464;11.764;2023-07-20T05:35:01;6.43;;;3.23;;
66129;SDS011;52930;51.464;11.764;2023-07-20T05:37:26;10.53;;;3.77;;
66129;SDS011;52930;51.464;11.764;2023-07-20T05:39:52;9.80;;;3.95;;
66129;SDS011;52930;51.464;11.764;2023-07-20T05:42:17;8.27;;;4.03;;
66129;SDS011;52930;51.464;11.764;2023-07-20T05:44:43;8.37;;;3.30;;
66129;SDS011;52930;51.464;11.764;2023-07-20T05:47:08;10.67;;;3.73;;
66129;SDS011;52930;51.464;11.764;2023-07-20T05:49:36;7.43;;;2.93;;
66129;SDS011;52930;51.464;11.764;2023-07-20T05:52:02;9.07;;;3.25;;
66129;SDS011;52930;51.464;11.764;2023-07-20T05:54:27;9.60;;;3.30;;
66129;SDS011;52930;51.464;11.764;2023-07-20T05:56:53;6.95;;;3.70;;
66129;SDS011;52930;51.464;11.764;2023-07-20T05:59:19;8.33;;;3.47;;
66129;SDS011;52930;51.464;11.764;2023-07-20T06:01:44;10.07;;;3.60;;
66129;SDS011;52930;51.464;11.764;2023-07-20T06:04:10;9.30;;;3.47;;
66129;SDS011;52930;51.464;11.764;2023-07-20T06:06:35;11.40;;;4.00;;
66129;SDS011;52930;51.464;11.764;2023-07-20T06:09:01;12.23;;;4.07;;
66129;SDS011;52930;51.464;11.764;2023-07-20T06:11:30;10.55;;;3.80;;
66129;SDS011;52930;51.464;11.764;2023-07-20T06:13:56;9.53;;;3.77;;
66129;SDS011;52930;51.464;11.764;2023-07-20T06:16:21;8.02;;;3.95;;
66129;SDS011;52930;51.464;11.764;2023-07-20T06:18:47;10.33;;;3.93;;
66129;SDS011;52930;51.464;11.764;2023-07-20T06:21:12;13.82;;;4.03;;
66129;SDS011;52930;51.464;11.764;2023-07-20T06:23:38;9.07;;;4.30;;
66129;SDS011;52930;51.464;11.764;2023-07-20T06:26:03;9.43;;;3.53;;
66129;SDS011;52930;51.464;11.764;2023-07-20T06:28:28;8.53;;;3.90;;
66129;SDS011;52930;51.464;11.764;2023-07-20T06:30:59;7.33;;;3.50;;
66129;SDS011;52930;51.464;11.764;2023-07-20T06:33:25;7.63;;;3.10;;
66129;SDS011;52930;51.464;11.764;2023-07-20T06:35:50;8.93;;;3.90;;
66129;SDS011;52930;51.464;11.764;2023-07-20T06:38:17;8.30;;;3.67;;
66129;SDS011;52930;51.464;11.764;2023-07-20T06:40:43;8.93;;;3.60;;
66129;SDS011;52930;51.464;11.764;2023-07-20T06:43:08;8.57;;;3.70;;
66129;SDS011;52930;51.464;11.764;2023-07-20T06:45:33;8.40;;;3.67;;
66129;SDS011;52930;51.464;11.764;2023-07-20T06:47:59;9.75;;;3.60;;
66129;SDS011;52930;51.464;11.764;2023-07-20T06:50:24;9.13;;;4.03;;
66129;SDS011;52930;51.464;11.764;2023-07-20T06:52:50;7.27;;;3.77;;
66129;SDS011;52930;51.464;11.764;2023-07-20T06:55:15;9.37;;;4.43;;
66129;SDS011;52930;51.464;11.764;2023-07-20T06:57:40;7.37;;;4.03;;
66129;SDS011;52930;51.464;11.764;2023-07-20T07:00:06;9.52;;;3.85;;
66129;SDS011;52930;51.464;11.764;2023-07-20T07:02:32;9.23;;;3.67;;
66129;SDS011;52930;51.464;11.764;2023-07-20T07:04:57;7.47;;;3.70;;
66129;SDS011;52930;51.464;11.764;2023-07-20T07:07:23;6.27;;;3.90;;
66129;SDS011;52930;51.464;11.764;2023-07-20T07:09:48;7.03;;;3.83;;
66129;SDS011;52930;51.464;11.764;2023-07-20T07:12:13;6.57;;;3.70;;
66129;SDS011;52930;51.464;11.764;2023-07-20T07:14:39;9.43;;;4.33;;
66129;SDS011;52930;51.464;11.764;2023-07-20T07:17:04;9.57;;;4.30;;
66129;SDS011;52930;51.464;11.764;2023-07-20T07:19:30;10.23;;;4.88;;
66129;SDS011;52930;51.464;11.764;2023-07-20T07:21:55;9.87;;;4.30;;
66129;SDS011;52930;51.464;11.764;2023-07-20T07:24:20;7.77;;;3.80;;
66129;SDS011;52930;51.464;11.764;2023-07-20T07:26:46;7.47;;;3.73;;
66129;SDS011;52930;51.464;11.764;2023-07-20T07:29:11;9.70;;;4.27;;
66129;SDS011;52930;51.464;11.764;2023-07-20T07:31:36;7.73;;;4.30;;
66129;SDS011;52930;51.464;11.764;2023-07-20T07:34:03;8.82;;;4.03;;
66129;SDS011;52930;51.464;11.764;2023-07-20T07:36:29;7.93;;;3.95;;
66129;SDS011;52930;51.464;11.764;2023-07-20T07:38:55;6.90;;;3.43;;
66129;SDS011;52930;51.464;11.764;2023-07-20T07:41:21;6.93;;;3.17;;
66129;SDS011;52930;51.464;11.764;2023-07-20T07:43:47;5.60;;;3.15;;
66129;SDS011;52930;51.464;11.764;2023-07-20T07:46:12;9.43;;;3.80;;
66129;SDS011;52930;51.464;11.764;2023-07-20T07:48:39;8.60;;;3.37;;
66129;SDS011;52930;51.464;11.764;2023-07-20T07:51:04;8.38;;;3.90;;
66129;SDS011;52930;51.464;11.764;2023-07-20T07:53:30;5.60;;;2.60;;
66129;SDS011;52930;51.464;11.764;2023-07-20T07:55:55;5.80;;;2.90;;
66129;SDS011;52930;51.464;11.764;2023-07-20T07:58:20;6.67;;;2.77;;
66129;SDS011;52930;51.464;11.764;2023-07-20T08:00:46;8.63;;;2.90;;
66129;SDS011;52930;51.464;11.764;2023-07-20T08:03:13;6.03;;;2.50;;
66129;SDS011;52930;51.464;11.764;2023-07-20T08:05:38;5.60;;;3.07;;
66129;SDS011;52930;51.464;11.764;2023-07-20T08:08:03;8.23;;;2.97;;
66129;SDS011;52930;51.464;11.764;2023-07-20T08:10:29;7.13;;;2.83;;
66129;SDS011;52930;51.464;11.764;2023-07-20T08:12:55;6.72;;;2.60;;
66129;SDS011;52930;51.464;11.764;2023-07-20T08:15:20;5.23;;;3.00;;
66129;SDS011;52930;51.464;11.764;2023-07-20T08:17:46;9.63;;;3.40;;
66129;SDS011;52930;51.464;11.764;2023-07-20T08:20:14;8.83;;;3.70;;
66129;SDS011;52930;51.464;11.764;2023-07-20T08:22:42;5.63;;;3.13;;
66129;SDS011;52930;51.464;11.764;2023-07-20T08:25:07;7.67;;;3.53;;
66129;SDS011;52930;51.464;11.764;2023-07-20T08:27:33;7.43;;;3.00;;
66129;SDS011;52930;51.464;11.764;2023-07-20T08:29:59;7.28;;;3.40;;
66129;SDS011;52930;51.464;11.764;2023-07-20T08:32:25;8.77;;;3.13;;
66129;SDS011;52930;51.464;11.764;2023-07-20T08:34:51;6.47;;;2.78;;
66129;SDS011;52930;51.464;11.764;2023-07-20T08:37:16;6.20;;;2.37;;
66129;SDS011;52930;51.464;11.764;2023-07-20T08:39:41;5.70;;;2.33;;
66129;SDS011;52930;51.464;11.764;2023-07-20T08:42:07;26.63;;;3.28;;
66129;SDS011;52930;51.464;11.764;2023-07-20T08:44:35;7.45;;;2.50;;
66129;SDS011;52930;51.464;11.764;2023-07-20T08:47:02;5.40;;;1.90;;
66129;SDS011;52930;51.464;11.764;2023-07-20T08:49:31;9.57;;;1.73;;
66129;SDS011;52930;51.464;11.764;2023-07-20T08:51:57;6.55;;;2.00;;
66129;SDS011;52930;51.464;11.764;2023-07-20T08:54:23;4.93;;;1.87;;
66129;SDS011;52930;51.464;11.764;2023-07-20T08:56:49;4.17;;;1.50;;
66129;SDS011;52930;51.464;11.764;2023-07-20T08:59:16;5.28;;;2.10;;
66129;SDS011;52930;51.464;11.764;2023-07-20T09:01:42;4.73;;;1.80;;
66129;SDS011;52930;51.464;11.764;2023-07-20T09:04:07;5.47;;;1.13;;
66129;SDS011;52930;51.464;11.764;2023-07-20T09:06:32;6.30;;;2.00;;
66129;SDS011;52930;51.464;11.764;2023-07-20T09:09:00;6.35;;;2.00;;
66129;SDS011;52930;51.464;11.764;2023-07-20T09:11:25;6.80;;;2.00;;
66129;SDS011;52930;51.464;11.764;2023-07-20T09:14:03;6.07;;;2.00;;
66129;SDS011;52930;51.464;11.764;2023-07-20T09:16:29;7.35;;;1.98;;
66129;SDS011;52930;51.464;11.764;2023-07-20T09:18:56;5.03;;;2.10;;
66129;SDS011;52930;51.464;11.764;2023-07-20T09:21:22;4.72;;;2.08;;
66129;SDS011;52930;51.464;11.764;2023-07-20T09:23:48;5.90;;;2.40;;
66129;SDS011;52930;51.464;11.764;2023-07-20T09:26:14;5.88;;;2.97;;
66129;SDS011;52930;51.464;11.764;2023-07-20T09:28:47;6.60;;;3.53;;
66129;SDS011;52930;51.464;11.764;2023-07-20T09:31:17;6.17;;;3.50;;
66129;SDS011;52930;51.464;11.764;2023-07-20T09:33:44;7.63;;;3.72;;
66129;SDS011;52930;51.464;11.764;2023-07-20T09:36:10;8.77;;;4.95;;
66129;SDS011;52930;51.464;11.764;2023-07-20T09:38:38;8.43;;;4.40;;
66129;SDS011;52930;51.464;11.764;2023-07-20T09:41:06;9.23;;;5.68;;
66129;SDS011;52930;51.464;11.764;2023-07-20T09:43:32;10.67;;;5.57;;
66129;SDS011;52930;51.464;11.764;2023-07-20T09:46:01;10.25;;;6.45;;
66129;SDS011;52930;51.464;11.764;2023-07-20T09:48:26;6.10;;;3.28;;
66129;SDS011;52930;51.464;11.764;2023-07-20T09:50:52;5.90;;;3.73;;
66129;SDS011;52930;51.464;11.764;2023-07-20T09:53:18;7.55;;;4.13;;
66129;SDS011;52930;51.464;11.764;2023-07-20T09:55:45;6.80;;;4.10;;
66129;SDS011;52930;51.464;11.764;2023-07-20T09:58:11;7.18;;;4.20;;
66129;SDS011;52930;51.464;11.764;2023-07-20T10:00:37;6.95;;;4.13;;
66129;SDS011;52930;51.464;11.764;2023-07-20T10:03:04;5.80;;;2.60;;
66129;SDS011;52930;51.464;11.764;2023-07-20T10:05:33;4.40;;;2.40;;
66129;SDS011;52930;51.464;11.764;2023-07-20T10:08:01;5.30;;;2.03;;
66129;SDS011;52930;51.464;11.764;2023-07-20T10:10:27;4.53;;;1.90;;
66129;SDS011;52930;51.464;11.764;2023-07-20T10:12:53;4.65;;;1.70;;
66129;SDS011;52930;51.464;11.764;2023-07-20T10:15:24;4.03;;;1.70;;
66129;SDS011;52930;51.464;11.764;2023-07-20T10:17:56;4.27;;;1.60;;
66129;SDS011;52930;51.464;11.764;2023-07-20T10:20:22;3.50;;;1.80;;
66129;SDS011;52930;51.464;11.764;2023-07-20T10:22:47;4.70;;;1.87;;
66129;SDS011;52930;51.464;11.764;2023-07-20T10:25:15;5.32;;;2.47;;
66129;SDS011;52930;51.464;11.764;2023-07-20T10:27:41;4.97;;;2.55;;
66129;SDS011;52930;51.464;11.764;2023-07-20T10:30:06;5.20;;;2.80;;
66129;SDS011;52930;51.464;11.764;2023-07-20T10:32:32;5.45;;;2.85;;
66129;SDS011;52930;51.464;11.764;2023-07-20T10:34:59;5.40;;;3.10;;
66129;SDS011;52930;51.464;11.764;2023-07-20T10:42:50;4.90;;;2.92;;
66129;SDS011;52930;51.464;11.764;2023-07-20T10:45:16;5.07;;;2.97;;
66129;SDS011;52930;51.464;11.764;2023-07-20T10:47:45;3.70;;;1.40;;
66129;SDS011;52930;51.464;11.764;2023-07-20T10:50:11;3.80;;;1.43;;
66129;SDS011;52930;51.464;11.764;2023-07-20T10:52:37;2.92;;;1.20;;
66129;SDS011;52930;51.464;11.764;2023-07-20T10:55:13;3.67;;;1.23;;
66129;SDS011;52930;51.464;11.764;2023-07-20T10:57:39;4.93;;;1.80;;
66129;SDS011;52930;51.464;11.764;2023-07-20T11:00:11;3.87;;;1.70;;
66129;SDS011;52930;51.464;11.764;2023-07-20T11:02:42;3.65;;;2.00;;
66129;SDS011;52930;51.464;11.764;2023-07-20T11:05:45;4.60;;;2.00;;
66129;SDS011;52930;51.464;11.764;2023-07-20T11:08:05;3.88;;;1.58;;
66129;SDS011;52930;51.464;11.764;2023-07-20T11:10:41;5.20;;;2.00;;
66129;SDS011;52930;51.464;11.764;2023-07-20T11:13:16;4.30;;;2.37;;
66129;SDS011;52930;51.464;11.764;2023-07-20T11:15:46;4.55;;;2.80;;
66129;SDS011;52930;51.464;11.764;2023-07-20T11:18:26;4.70;;;2.72;;
66129;SDS011;52930;51.464;11.764;2023-07-20T11:20:52;4.78;;;3.03;;
66129;SDS011;52930;51.464;11.764;2023-07-20T11:23:19;4.87;;;2.97;;
66129;SDS011;52930;51.464;11.764;2023-07-20T11:25:44;5.47;;;3.55;;
66129;SDS011;52930;51.464;11.764;2023-07-20T11:28:10;5.33;;;2.87;;
66129;SDS011;52930;51.464;11.764;2023-07-20T11:30:36;6.37;;;3.17;;
66129;SDS011;52930;51.464;11.764;2023-07-20T11:33:02;6.00;;;3.72;;
66129;SDS011;52930;51.464;11.764;2023-07-20T11:35:28;6.80;;;3.97;;
66129;SDS011;52930;51.464;11.764;2023-07-20T11:37:54;6.00;;;3.80;;
66129;SDS011;52930;51.464;11.764;2023-07-20T11:40:20;5.40;;;3.65;;
66129;SDS011;52930;51.464;11.764;2023-07-20T11:42:45;6.57;;;3.80;;
66129;SDS011;52930;51.464;11.764;2023-07-20T11:45:11;6.57;;;4.15;;
66129;SDS011;52930;51.464;11.764;2023-07-20T11:47:39;8.77;;;4.67;;
66129;SDS011;52930;51.464;11.764;2023-07-20T11:50:05;7.03;;;5.07;;
66129;SDS011;52930;51.464;11.764;2023-07-20T11:52:31;7.33;;;4.83;;
66129;SDS011;52930;51.464;11.764;2023-07-20T11:54:56;8.13;;;5.80;;
66129;SDS011;52930;51.464;11.764;2023-07-20T11:57:22;7.00;;;4.70;;
66129;SDS011;52930;51.464;11.764;2023-07-20T12:02:23;7.27;;;5.03;;
66129;SDS011;52930;51.464;11.764;2023-07-20T12:04:50;8.05;;;4.28;;
66129;SDS011;52930;51.464;11.764;2023-07-20T12:07:18;5.93;;;4.25;;
66129;SDS011;52930;51.464;11.764;2023-07-20T12:09:43;14.40;;;4.88;;
66129;SDS011;52930;51.464;11.764;2023-07-20T12:12:10;6.13;;;4.22;;
66129;SDS011;52930;51.464;11.764;2023-07-20T12:14:38;7.37;;;3.53;;
66129;SDS011;52930;51.464;11.764;2023-07-20T12:17:03;6.40;;;4.23;;
66129;SDS011;52930;51.464;11.764;2023-07-20T12:19:29;8.32;;;4.60;;
66129;SDS011;52930;51.464;11.764;2023-07-20T12:21:57;4.80;;;3.20;;
66129;SDS011;52930;51.464;11.764;2023-07-20T12:24:24;5.10;;;2.50;;
66129;SDS011;52930;51.464;11.764;2023-07-20T12:26:55;4.97;;;2.97;;
66129;SDS011;52930;51.464;11.764;2023-07-20T12:29:21;6.30;;;3.65;;
66129;SDS011;52930;51.464;11.764;2023-07-20T12:31:47;6.27;;;3.80;;
66129;SDS011;52930;51.464;11.764;2023-07-20T12:34:12;6.70;;;3.60;;
66129;SDS011;52930;51.464;11.764;2023-07-20T12:36:38;5.77;;;2.90;;
66129;SDS011;52930;51.464;11.764;2023-07-20T12:39:03;5.00;;;2.27;;
66129;SDS011;52930;51.464;11.764;2023-07-20T12:41:28;4.55;;;2.55;;
66129;SDS011;52930;51.464;11.764;2023-07-20T12:43:54;3.70;;;1.77;;
66129;SDS011;52930;51.464;11.764;2023-07-20T12:46:22;3.78;;;2.00;;
66129;SDS011;52930;51.464;11.764;2023-07-20T12:48:48;5.10;;;1.93;;
66129;SDS011;52930;51.464;11.764;2023-07-20T12:51:14;5.63;;;1.33;;
66129;SDS011;52930;51.464;11.764;2023-07-20T12:53:39;4.85;;;1.02;;
66129;SDS011;52930;51.464;11.764;2023-07-20T12:56:05;3.07;;;1.03;;
66129;SDS011;52930;51.464;11.764;2023-07-20T12:58:30;4.20;;;1.80;;
66129;SDS011;52930;51.464;11.764;2023-07-20T13:00:55;4.13;;;2.00;;
66129;SDS011;52930;51.464;11.764;2023-07-20T13:03:21;4.10;;;2.20;;
66129;SDS011;52930;51.464;11.764;2023-07-20T13:05:46;7.73;;;2.17;;
66129;SDS011;52930;51.464;11.764;2023-07-20T13:08:12;3.87;;;1.83;;
66129;SDS011;52930;51.464;11.764;2023-07-20T13:10:38;3.95;;;1.30;;
66129;SDS011;52930;51.464;11.764;2023-07-20T13:13:04;3.10;;;1.20;;
66129;SDS011;52930;51.464;11.764;2023-07-20T13:15:30;3.10;;;1.10;;
66129;SDS011;52930;51.464;11.764;2023-07-20T13:17:57;3.30;;;1.15;;
66129;SDS011;52930;51.464;11.764;2023-07-20T13:20:22;3.50;;;1.57;;
66129;SDS011;52930;51.464;11.764;2023-07-20T13:22:47;3.30;;;1.60;;
66129;SDS011;52930;51.464;11.764;2023-07-20T13:25:13;3.10;;;1.40;;
66129;SDS011;52930;51.464;11.764;2023-07-20T13:27:39;3.00;;;1.00;;
66129;SDS011;52930;51.464;11.764;2023-07-20T13:30:04;4.30;;;1.23;;
66129;SDS011;52930;51.464;11.764;2023-07-20T13:32:32;3.50;;;1.30;;
66129;SDS011;52930;51.464;11.764;2023-07-20T13:34:58;3.13;;;1.10;;
66129;SDS011;52930;51.464;11.764;2023-07-20T13:37:24;3.77;;;1.23;;
66129;SDS011;52930;51.464;11.764;2023-07-20T13:39:49;3.17;;;1.13;;
66129;SDS011;52930;51.464;11.764;2023-07-20T13:42:15;3.63;;;1.20;;
66129;SDS011;52930;51.464;11.764;2023-07-20T13:44:40;3.10;;;1.37;;
66129;SDS011;52930;51.464;11.764;2023-07-20T13:47:06;3.10;;;1.10;;
66129;SDS011;52930;51.464;11.764;2023-07-20T13:49:31;5.82;;;1.30;;
66129;SDS011;52930;51.464;11.764;2023-07-20T13:51:57;3.03;;;1.13;;
66129;SDS011;52930;51.464;11.764;2023-07-20T13:54:23;2.87;;;0.83;;
66129;SDS011;52930;51.464;11.764;2023-07-20T13:56:49;3.20;;;0.80;;
66129;SDS011;52930;51.464;11.764;2023-07-20T13:59:14;3.13;;;1.00;;
66129;SDS011;52930;51.464;11.764;2023-07-20T14:01:39;6.43;;;1.10;;
66129;SDS011;52930;51.464;11.764;2023-07-20T14:04:05;3.42;;;0.90;;
66129;SDS011;52930;51.464;11.764;2023-07-20T14:06:31;3.37;;;0.80;;
66129;SDS011;52930;51.464;11.764;2023-07-20T14:08:57;2.58;;;0.70;;
66129;SDS011;52930;51.464;11.764;2023-07-20T14:11:23;2.87;;;0.90;;
66129;SDS011;52930;51.464;11.764;2023-07-20T14:13:48;2.88;;;0.80;;
66129;SDS011;52930;51.464;11.764;2023-07-20T14:16:14;2.70;;;1.00;;
66129;SDS011;52930;51.464;11.764;2023-07-20T14:18:40;5.60;;;0.93;;
66129;SDS011;52930;51.464;11.764;2023-07-20T14:21:05;4.07;;;0.97;;
66129;SDS011;52930;51.464;11.764;2023-07-20T14:23:31;4.18;;;0.80;;
66129;SDS011;52930;51.464;11.764;2023-07-20T14:25:57;2.90;;;0.90;;
66129;SDS011;52930;51.464;11.764;2023-07-20T14:28:23;2.80;;;1.00;;
66129;SDS011;52930;51.464;11.764;2023-07-20T14:30:49;2.50;;;0.60;;
66129;SDS011;52930;51.464;11.764;2023-07-20T14:33:14;2.70;;;0.70;;
66129;SDS011;52930;51.464;11.764;2023-07-20T14:35:39;3.13;;;0.80;;
66129;SDS011;52930;51.464;11.764;2023-07-20T14:38:05;6.60;;;1.00;;
66129;SDS011;52930;51.464;11.764;2023-07-20T14:40:30;2.60;;;0.77;;